My Meet Scores
Lauren Oxley, Aspire Gymnastics Academy - MyMeetScores.com
Top100 | Top Teams | Upcoming Meets | Completed Meets | Latest | Add Scores | Help| Support | Bookmark and Share

Lauren Oxley, Aspire Gymnastics Academy
Personal Bests
LevelVault BarsBeamFloorAA
39.2509.100 9.2509.12536.125
48.5008.500 8.9008.60033.875
59.0758.825 8.7508.47534.075
79.4008.600 8.7509.00035.600
Meet Scores
Date Meet Team Session Level Division Vault Bars Beam Floor AA
2018-03-23 Illinois Level 7 & 8 State Competition Aspire Gymnastics Academy 09 7 Ch E 9.300 16T 8.600 22 8.750 20 8.950 24 35.600 23
2018-03-09 Lucky Invitational Aspire Gymnastics Academy A06 7 Jr A 9.400 20T 8.525 28T 8.150 29 8.775 30 34.850 29
2018-02-16 Big Classic Aspire Gymnastics Academy 2A 7 Junior B 9.150 4T 8.050 13 8.700 8 8.300 14 34.200 14
2018-01-26 2018 UGA Classic Aspire Gymnastics Academy A2 7 Jr B 9.250 6T 8.250 14 8.750 14T 9.000 16 35.250 16
2018-01-19 2018 Bravo Classic Aspire Gymnastics Academy 4A 7 Jr 9.000 11 8.550 11T 8.750 13T 8.750 18 35.050 14T
2018-01-04 Atlanta Crown Invitational Aspire Gymnastics Academy A04 7 B 9.275 4 8.175 9 8.350 7 8.550 10 34.350 9
2017-12-15 2017 Aspire Classic Aspire Gymnastics Academy 4 7 Younger 9.400 8 7.750 19 0.000 21T 8.625 20 25.775 21
2017-11-16 Paul Hamm Thanksgiving Classic - Women Aspire Gymnastics Academy 3 7 Younger 9.400 31T 7.600 65T 7.750 72 8.500 69T 33.250 68
2017-03-30 2017 Illinois Level 3 & 5 State Aspire Gymnastics Academy All 5 Jr E 9.075 8 8.150 23T 7.925 26 8.475 23 33.625 25
2017-02-24 Kinetic Classic Aspire Gymnastics Academy 6 5 All Ages 8.850 22T 8.450 24 8.525 29 7.900 36 33.725 34
2017-02-18 2017 Great Western Invitational Women's Aspire Gymnastics Academy A10 5 L5 (910) 8.650 9 8.825 10 8.550 12 8.050 13 34.075 11
2017-01-27 2017 UGA Invitational Aspire Gymnastics Academy B4 5 Junior 8.650 13 8.600 10T 8.750 9 8.000 16 34.000 12
2017-01-20 2017 Bravo Classic Aspire Gymnastics Academy 04B 5 10yrs 9.000 21 7.500 24 8.750 15T 7.900 25 33.150 24
2016-12-16 2016 Aspire Classic Aspire Gymnastics Academy 5 5 Younger 8.750 12T 8.550 13T 7.750 22 7.700 22 32.750 19
2016-12-09 St. Nick Invite Aspire Gymnastics Academy 1 5 JrB 8.750 10 7.850 16 7.700 20 7.850 19 32.150 16
2016-11-19 Paul Hamm Thanksgiving Classic - 2016 Girls Aspire Gymnastics Academy 1 5 7-10 yrs 8.650 10T 8.000 11T 8.750 9 7.700 16 33.100 13
2016-03-10 2016 Illinois Level 4 State Meet Aspire Gymnastics Academy All 4 Youth-D 8.450 23 8.000 25 8.250 27 7.850 28 32.550 27
2016-02-13 Western Invite Aspire Gymnastics Academy 5 4 Filly 8.275 14 8.500 14 8.500 17 8.600 16T 33.875 18
2016-01-15 2016 Bravo Classic Aspire Gymnastics Academy 14A 4 9yrs 8.350 16T 7.800 24 8.475 23 8.025 24 32.650 24T
2015-12-11 St. Nick Invite Aspire Gymnastics Academy 2B 4 Youth 8.500 9 8.300 15 8.900 9 7.750 17 33.450 15
2015-03-12 2015 Illinois Level 3 State Championship Aspire Gymnastics Academy All 3 Youth-F 9.250 10 8.525 19 8.900 12 8.675 20 35.350 19
2015-02-14 2015 Great Western Invitational Aspire Gymnastics Academy 4 3 Pony 9.250 8 9.100 6 9.125 1 8.650 14T 36.125 4
2014-03-07 Illinois Level 3 State Meet Aspire Gymnastics Academy 3 3 Child E 8.900 27 8.850 17 9.250 5 8.500 28 35.500 20
2014-01-24 2014 UGA Super Invitational Aspire Gymnastics Academy 4B 3 All Ages 8.750 47 8.500 19 8.525 6 9.125 31 34.900 24T

www.lazysuits.com